MMZC

General Leobardo C. Ruiz International Airport

Zacatecas, Mexico
TAF MMZC 161117Z 1612/1718 20005KT P6SM SKC TX25/1621Z TN08/1612Z FM161700 22015KT P6SM SKC FM170200 22005KT P6SM SCT250 FM171600 23012KT P6SM SCT250
Issued Valid From Valid To
Feb-16 @ 11:17 UTC
(54 minutes ago)
Feb-16 @ 12:00 UTC
(11 minutes ago)
Feb-17 @ 18:00 UTC
(-1 days ago)
Feb-16 @ 12:00 to Feb-16 @ 17:00
TAF MMZC 161117Z 1612/1718 20005KT P6SM SKC TX25/1621Z TN08/1612Z
Wind Visibility Clouds
200° at 5 knots Greater than 6 miles
  • Clear skies
From Feb-16 @ 17:00 to Feb-17 @ 02:00
FM161700 22015KT P6SM SKC
Wind Visibility Clouds
220° at 15 knots Greater than 6 miles
  • Clear skies
From Feb-17 @ 02:00 to Feb-17 @ 16:00
FM170200 22005KT P6SM SCT250
Wind Visibility Clouds
220° at 5 knots Greater than 6 miles
  • Scattered at 25,000' AGL
From Feb-17 @ 16:00 to Feb-17 @ 18:00
FM171600 23012KT P6SM SCT250
Wind Visibility Clouds
230° at 12 knots Greater than 6 miles
  • Scattered at 25,000' AGL
TAF MMZC 161117Z 1612/1718 20005KT P6SM SKC TX25/1621Z TN08/1612Z FM161700 22015KT P6SM SKC FM170200 22005KT P6SM SCT250 FM171600 23012KT P6SM SCT250
Issued Feb-16 @ 11:17 UTC
(54 minutes ago)
Valid From Feb-16 @ 12:00 UTC
(11 minutes ago)
Valid To Feb-17 @ 18:00 UTC
(-1 days ago)
Feb-16 @ 12:00 - Feb-16 @ 17:00
Wind Visibility
200° at 5 knots Greater than 6 miles
Clouds
  • Clear skies
From Feb-16 @ 17:00 - Feb-17 @ 02:00
Wind Visibility
220° at 15 knots Greater than 6 miles
Clouds
  • Clear skies
From Feb-17 @ 02:00 - Feb-17 @ 16:00
Wind Visibility
220° at 5 knots Greater than 6 miles
Clouds
  • Scattered at 25,000' AGL
From Feb-17 @ 16:00 - Feb-17 @ 18:00
Wind Visibility
230° at 12 knots Greater than 6 miles
Clouds
  • Scattered at 25,000' AGL